Time;durP1;ratioP1;P1;durP2;ratioP2;P2;SDS_P1;SDS_P2;PMS_P1;PMS_P2;Temp;Humidity;BMP_temperature;BMP_pressure;BME280_temperature;BME280_humidity;BME280_pressure;Samples;Min_cycle;Max_cycle;Signal;HPM_P1;HPM_P2
2023/05/29 00:00:49;;;;;;;7.32;5.15;;;;;;;16.80;49.18;96699.44;4884854;29;20045;-79
2023/05/29 00:03:17;;;;;;;7.78;4.30;;;;;;;16.76;49.28;96699.03;4885153;29;20088;-79
2023/05/29 00:05:45;;;;;;;10.52;4.68;;;;;;;16.72;49.40;96692.56;4884994;29;20040;-79
2023/05/29 00:08:13;;;;;;;5.30;4.50;;;;;;;16.74;51.21;96690.53;4885209;29;20070;-79
2023/05/29 00:10:42;;;;;;;5.18;3.83;;;;;;;16.83;50.73;96699.78;4885176;29;20041;-78
2023/05/29 00:13:10;;;;;;;7.82;5.05;;;;;;;16.88;49.57;96702.59;4885031;29;20066;-79
2023/05/29 00:15:38;;;;;;;12.43;5.40;;;;;;;16.84;49.59;96711.94;4884457;29;20113;-80
2023/05/29 00:18:06;;;;;;;6.70;4.47;;;;;;;16.85;51.05;96713.53;4884288;29;20053;-81
2023/05/29 00:20:35;;;;;;;6.32;4.88;;;;;;;16.85;49.81;96710.91;4884241;29;20068;-81
2023/05/29 00:23:05;;;;;;;10.32;5.55;;;;;;;16.80;49.39;96709.97;4884779;29;20037;-80
2023/05/29 00:25:33;;;;;;;8.88;4.60;;;;;;;16.76;49.66;96712.19;4884778;29;20081;-80
2023/05/29 00:28:02;;;;;;;6.25;4.00;;;;;;;16.75;50.54;96713.25;4884972;29;20097;-80
2023/05/29 00:30:30;;;;;;;7.85;4.85;;;;;;;16.79;50.73;96703.06;4884734;29;20030;-80
2023/05/29 00:32:58;;;;;;;7.30;5.00;;;;;;;16.72;49.40;96700.47;4884618;29;20029;-80
2023/05/29 00:35:26;;;;;;;7.50;4.70;;;;;;;16.60;49.42;96702.25;4884413;29;20033;-80
2023/05/29 00:37:54;;;;;;;5.80;4.43;;;;;;;16.47;49.66;96705.78;4884006;29;20044;-79
2023/05/29 00:40:22;;;;;;;14.60;4.28;;;;;;;16.36;50.00;96695.97;4884570;29;20037;-79
2023/05/29 00:42:50;;;;;;;8.68;5.00;;;;;;;16.23;50.28;96707.41;4884516;29;20037;-80
2023/05/29 00:45:20;;;;;;;5.65;4.20;;;;;;;16.12;50.15;96697.59;4883889;29;20041;-80
2023/05/29 00:47:47;;;;;;;5.05;3.78;;;;;;;16.04;50.59;96696.81;4884536;29;20040;-80
2023/05/29 00:50:16;;;;;;;7.28;4.95;;;;;;;16.01;50.67;96702.50;4884688;29;20045;-80
2023/05/29 00:52:45;;;;;;;10.20;4.30;;;;;;;15.99;50.77;96704.56;4884796;29;20087;-80
2023/05/29 00:55:14;;;;;;;6.03;4.28;;;;;;;16.00;50.92;96700.88;4884706;29;20038;-79
2023/05/29 00:57:45;;;;;;;6.70;3.80;;;;;;;16.03;51.16;96703.09;4884829;29;20041;-80
2023/05/29 01:00:14;;;;;;;8.57;4.53;;;;;;;16.02;50.33;96693.59;4884802;29;20033;-80
2023/05/29 01:02:44;;;;;;;7.40;4.07;;;;;;;16.01;52.06;96702.50;4884553;29;20048;-79
2023/05/29 01:05:13;;;;;;;6.68;4.57;;;;;;;16.01;50.97;96693.81;4884502;29;20038;-79
2023/05/29 01:07:41;;;;;;;7.93;4.80;;;;;;;15.95;50.82;96692.84;4886645;29;20033;-80
2023/05/29 01:10:10;;;;;;;7.78;4.95;;;;;;;15.92;50.48;96692.44;4888360;29;20071;-80
2023/05/29 01:12:44;;;;;;;7.97;4.60;;;;;;;15.88;51.02;96686.03;4888134;29;20066;-79
2023/05/29 01:15:26;;;;;;;6.65;4.18;;;;;;;15.79;51.10;96691.53;4888066;29;20074;-80
2023/05/29 01:18:20;;;;;;;7.07;4.15;;;;;;;15.77;52.18;96690.94;4888317;29;20053;-79
2023/05/29 01:20:53;;;;;;;6.47;4.28;;;;;;;15.80;51.16;96695.75;4888196;29;20053;-79
2023/05/29 01:23:41;;;;;;;7.95;4.10;;;;;;;15.80;51.20;96700.22;4888136;29;20049;-80
2023/05/29 01:26:25;;;;;;;6.55;4.40;;;;;;;15.78;51.05;96702.25;4887862;29;20037;-79
2023/05/29 01:28:58;;;;;;;7.97;4.22;;;;;;;15.75;51.07;96687.72;4888077;29;20034;-80
2023/05/29 01:31:27;;;;;;;7.40;3.95;;;;;;;15.73;50.90;96694.22;4887808;29;20037;-80
2023/05/29 01:33:56;;;;;;;6.32;3.47;;;;;;;15.66;51.04;96688.97;4888010;29;20040;-80
2023/05/29 01:36:24;;;;;;;5.38;4.07;;;;;;;15.61;51.26;96689.59;4887595;29;20064;-79
2023/05/29 01:38:53;;;;;;;9.60;4.18;;;;;;;15.52;51.20;96688.22;4888028;29;20069;-80
2023/05/29 01:41:24;;;;;;;10.25;3.92;;;;;;;15.37;51.23;96692.94;4887784;29;20034;-80
2023/05/29 01:43:54;;;;;;;9.65;4.57;;;;;;;15.24;52.00;96692.00;4887734;29;20042;-80
2023/05/29 01:46:25;;;;;;;6.45;4.72;;;;;;;15.15;52.05;96689.78;4887467;29;20048;-79
2023/05/29 01:48:54;;;;;;;5.85;4.20;;;;;;;15.05;52.36;96690.25;4887721;29;20065;-79
2023/05/29 01:51:22;;;;;;;6.28;3.95;;;;;;;14.95;52.59;96685.41;4887553;29;20079;-79
2023/05/29 01:53:50;;;;;;;11.27;3.88;;;;;;;14.90;52.78;96684.44;4887494;29;20033;-80
2023/05/29 01:56:19;;;;;;;6.40;4.05;;;;;;;14.91;53.68;96689.50;4887383;29;20053;-80
2023/05/29 01:58:47;;;;;;;6.40;3.88;;;;;;;14.95;53.13;96682.78;4887298;29;20042;-80
2023/05/29 02:01:17;;;;;;;6.35;3.97;;;;;;;15.05;53.17;96692.88;4887407;29;20058;-79
2023/05/29 02:03:44;;;;;;;5.68;4.00;;;;;;;15.11;53.47;96683.34;4887213;29;20082;-79
2023/05/29 02:06:12;;;;;;;6.82;3.80;;;;;;;15.13;52.82;96682.16;4887294;29;20029;-79
2023/05/29 02:08:40;;;;;;;4.45;3.67;;;;;;;15.12;52.54;96683.16;4886985;29;20065;-80
2023/05/29 02:11:08;;;;;;;6.88;3.97;;;;;;;15.08;51.98;96684.56;4887225;29;20086;-79
2023/05/29 02:13:36;;;;;;;4.85;3.80;;;;;;;15.04;52.17;96684.19;4887069;29;20034;-79
2023/05/29 02:16:03;;;;;;;8.73;4.50;;;;;;;15.04;52.19;96676.31;4887078;29;20044;-77
2023/05/29 02:18:34;;;;;;;5.50;3.70;;;;;;;15.02;52.60;96688.03;4885994;29;20033;-78
2023/05/29 02:21:02;;;;;;;5.60;3.92;;;;;;;14.95;52.81;96682.00;4886933;29;20051;-78
2023/05/29 02:23:29;;;;;;;5.25;3.53;;;;;;;14.94;53.48;96683.03;4886863;29;20040;-79
2023/05/29 02:25:57;;;;;;;4.93;3.80;;;;;;;14.95;54.36;96682.00;4886679;29;20033;-78
2023/05/29 02:28:25;;;;;;;7.68;4.38;;;;;;;14.93;53.44;96684.03;4886888;29;20037;-78
2023/05/29 02:30:53;;;;;;;5.90;4.20;;;;;;;14.87;53.95;96675.16;4886805;29;20148;-78
2023/05/29 02:33:21;;;;;;;7.88;4.32;;;;;;;14.82;53.50;96677.59;4886651;29;20041;-78
2023/05/29 02:35:50;;;;;;;8.15;4.28;;;;;;;14.76;53.52;96681.06;4886571;29;20038;-78
2023/05/29 02:38:17;;;;;;;6.65;3.78;;;;;;;14.71;53.54;96683.47;4886608;29;20053;-78
2023/05/29 02:40:45;;;;;;;5.85;4.50;;;;;;;14.64;53.58;96680.88;4886583;29;20074;-78
2023/05/29 02:43:14;;;;;;;7.03;3.72;;;;;;;14.54;53.99;96696.19;4886469;29;20045;-78
2023/05/29 02:45:42;;;;;;;6.22;3.75;;;;;;;14.50;53.95;96679.25;4886397;29;20057;-78
2023/05/29 02:48:09;;;;;;;6.57;3.90;;;;;;;14.45;53.99;96686.91;4886404;29;20074;-78
2023/05/29 02:50:37;;;;;;;7.95;4.28;;;;;;;14.35;54.14;96689.97;4886249;29;20049;-78
2023/05/29 02:53:06;;;;;;;5.68;3.90;;;;;;;14.26;54.54;96684.13;4886214;29;20053;-78
2023/05/29 02:55:35;;;;;;;5.43;3.47;;;;;;;14.27;55.38;96685.72;4886152;29;20071;-78
2023/05/29 02:58:03;;;;;;;5.95;3.88;;;;;;;14.30;55.00;96687.97;4886228;29;20041;-78
2023/05/29 03:00:31;;;;;;;5.25;3.55;;;;;;;14.25;54.54;96681.69;4886282;29;20037;-78
2023/05/29 03:02:58;;;;;;;7.80;3.78;;;;;;;14.15;54.90;96682.13;4886242;29;20045;-79
2023/05/29 03:05:26;;;;;;;8.00;4.45;;;;;;;14.07;54.83;96674.44;4885948;29;20033;-78
2023/05/29 03:07:54;;;;;;;8.10;4.10;;;;;;;14.04;55.09;96682.69;4885861;29;20040;-78
2023/05/29 03:10:23;;;;;;;5.10;3.80;;;;;;;13.98;55.12;96681.69;4885795;29;20037;-78
2023/05/29 03:12:51;;;;;;;5.75;4.20;;;;;;;13.92;55.27;96683.28;4885668;29;20057;-78
2023/05/29 03:15:19;;;;;;;4.40;3.47;;;;;;;13.91;55.47;96676.44;4884439;29;20076;-78
2023/05/29 03:17:47;;;;;;;6.68;4.13;;;;;;;13.92;55.61;96679.88;4884680;29;20029;-78
2023/05/29 03:20:15;;;;;;;5.90;4.38;;;;;;;13.86;55.42;96672.81;4884478;29;20042;-78
2023/05/29 03:22:43;;;;;;;6.32;4.18;;;;;;;13.80;55.70;96671.81;4884359;29;20072;-78
2023/05/29 03:25:11;;;;;;;7.53;4.45;;;;;;;13.87;56.49;96669.19;4883960;29;20058;-78
2023/05/29 03:27:40;;;;;;;6.80;3.55;;;;;;;13.96;57.77;96673.22;4884341;29;20097;-78
2023/05/29 03:30:09;;;;;;;5.93;4.15;;;;;;;14.01;56.44;96670.78;4885070;29;20038;-78
2023/05/29 03:32:37;;;;;;;8.43;4.55;;;;;;;14.04;56.03;96677.44;4885579;29;20038;-77
2023/05/29 03:35:05;;;;;;;8.30;4.25;;;;;;;14.02;56.22;96675.84;4885312;29;20037;-78
2023/05/29 03:37:33;;;;;;;6.03;3.83;;;;;;;14.01;55.96;96673.41;4885761;29;20033;-78
2023/05/29 03:40:00;;;;;;;6.78;4.30;;;;;;;13.97;56.46;96675.66;4885490;29;20057;-78
2023/05/29 03:42:30;;;;;;;4.88;3.90;;;;;;;14.01;57.67;96671.63;4885503;29;20209;-78
2023/05/29 03:45:00;;;;;;;8.85;4.53;;;;;;;14.09;56.81;96677.66;4885269;29;20066;-78
2023/05/29 03:47:27;;;;;;;7.93;4.38;;;;;;;14.12;56.21;96679.88;4885403;29;20070;-78
2023/05/29 03:49:55;;;;;;;7.95;4.72;;;;;;;14.07;56.18;96674.44;4885264;29;20101;-78
2023/05/29 03:52:23;;;;;;;4.93;3.50;;;;;;;14.06;56.56;96680.66;4885249;29;20034;-79
2023/05/29 03:54:51;;;;;;;5.18;3.63;;;;;;;14.04;56.17;96677.44;4885017;29;20094;-78
2023/05/29 03:57:18;;;;;;;5.15;4.05;;;;;;;13.99;55.78;96678.88;4885082;29;20042;-78
2023/05/29 03:59:46;;;;;;;5.57;4.22;;;;;;;13.91;56.36;96675.66;4885103;29;20047;-78
2023/05/29 04:02:15;;;;;;;5.32;3.88;;;;;;;13.90;57.71;96676.63;4885036;29;20037;-78
2023/05/29 04:04:46;;;;;;;;;;;;;;;13.93;56.62;96679.69;4885413;29;20042;-78
2023/05/29 04:07:14;;;;;;;7.55;3.60;;;;;;;14.00;56.71;96680.47;4885045;29;19919;-78
2023/05/29 04:09:42;;;;;;;7.95;4.38;;;;;;;14.02;55.89;96686.34;4884980;29;20073;-77
2023/05/29 04:12:10;;;;;;;5.00;3.72;;;;;;;14.02;56.88;96683.72;4884990;29;20077;-78
2023/05/29 04:14:38;;;;;;;6.00;3.85;;;;;;;14.12;56.46;96687.75;4884545;29;20038;-78
2023/05/29 04:17:05;;;;;;;6.30;3.85;;;;;;;14.21;56.60;96689.16;4884983;29;20045;-77
2023/05/29 04:19:34;;;;;;;5.93;3.75;;;;;;;14.30;56.57;96697.63;4885014;29;20089;-78
2023/05/29 04:22:02;;;;;;;6.18;4.40;;;;;;;14.30;56.40;96695.81;4884894;29;20052;-78
2023/05/29 08:03:27;;;;;;;5.07;3.60;;;;;;;20.18;40.98;96829.03;5498780;23;20049;-79
2023/05/29 08:05:55;;;;;;;4.45;3.30;;;;;;;20.29;42.08;96840.63;4860941;29;20104;-77
2023/05/29 08:08:22;;;;;;;4.60;3.10;;;;;;;20.42;41.58;96834.22;4862828;29;20054;-79
2023/05/29 08:10:50;;;;;;;4.50;2.95;;;;;;;20.54;41.37;96845.56;4860385;29;20053;-78
2023/05/29 08:13:17;;;;;;;6.03;3.13;;;;;;;20.65;40.78;96838.63;4860369;29;20045;-79
2023/05/29 09:06:16;;;;;;;3.42;2.33;;;;;;;21.66;34.80;96843.84;5454387;23;20088;-82
2023/05/29 09:20:30;;;;;;;6.45;3.10;;;;;;;21.90;34.05;96854.22;5079626;23;20045;-81
2023/05/29 09:23:43;;;;;;;4.03;2.45;;;;;;;21.92;33.83;96844.16;4884925;29;20065;-83
2023/05/29 10:31:56;;;;;;;4.18;2.45;;;;;;;23.26;32.61;96844.31;5000050;23;20090;-80
2023/05/29 10:40:28;;;;;;;7.53;2.50;;;;;;;23.35;31.63;96837.47;5349980;23;20049;-81
2023/05/29 11:02:33;;;;;;;3.95;2.60;;;;;;;23.62;30.86;96832.00;5527405;23;20694;-81
2023/05/29 11:05:20;;;;;;;3.35;2.42;;;;;;;23.66;30.88;96834.97;4886219;29;20044;-84
2023/05/29 11:10:45;;;;;;;6.30;2.38;;;;;;;23.71;30.15;96834.97;5138577;23;20045;-80
2023/05/29 11:13:34;;;;;;;3.93;2.43;;;;;;;23.75;30.90;96830.75;4886587;29;20060;-82
2023/05/29 11:44:11;;;;;;;5.70;2.72;;;;;;;24.05;29.48;96823.91;3145982;23;20037;-81
2023/05/29 12:40:52;;;;;;;3.45;2.47;;;;;;;24.39;26.72;96818.13;4960030;23;20097;-80
2023/05/29 12:50:11;;;;;;;3.47;2.45;;;;;;;24.55;26.55;96822.44;5116941;23;20057;-82
2023/05/29 12:56:46;;;;;;;4.70;2.60;;;;;;;24.55;25.50;96817.09;5134129;23;20050;-85
2023/05/29 13:02:09;;;;;;;4.53;2.00;;;;;;;24.57;25.88;96814.97;5016706;23;20052;-83
2023/05/29 13:04:39;;;;;;;4.78;2.00;;;;;;;24.63;26.00;96813.91;4904151;29;20067;-79
2023/05/29 13:07:30;;;;;;;5.88;2.00;;;;;;;24.68;25.96;96799.75;4887514;29;20045;-82
2023/05/29 13:21:00;;;;;;;2.55;2.03;;;;;;;24.88;25.59;96801.63;4956592;23;20116;-81
2023/05/29 13:29:17;;;;;;;2.35;2.13;;;;;;;24.92;25.05;96794.69;4867216;29;20046;-82
2023/05/29 13:31:55;;;;;;;2.92;2.30;;;;;;;24.90;24.95;96786.13;5063388;23;20084;-80
2023/05/29 13:37:33;;;;;;;3.03;2.20;;;;;;;24.93;25.61;96788.28;5073365;23;20055;-80
2023/05/29 13:43:02;;;;;;;3.83;2.20;;;;;;;24.97;26.40;96784.00;5064104;23;20129;-80
2023/05/29 13:51:09;;;;;;;4.55;2.63;;;;;;;25.12;24.49;96774.38;5029858;23;20034;-79
2023/05/29 13:59:43;;;;;;;6.10;2.83;;;;;;;25.04;23.69;96781.84;4135377;23;20065;-82
2023/05/29 14:02:12;;;;;;;3.28;2.15;;;;;;;24.99;23.52;96768.53;5390248;23;20063;-82
2023/05/29 14:04:46;;;;;;;3.50;2.55;;;;;;;24.94;23.69;96771.19;4886970;29;20113;-82
2023/05/29 14:07:14;;;;;;;3.00;2.70;;;;;;;24.93;24.35;96766.94;4886850;29;20048;-83
2023/05/29 14:09:43;;;;;;;3.15;2.67;;;;;;;24.95;23.89;96766.66;4871298;29;20038;-82
2023/05/29 14:12:14;;;;;;;3.85;2.63;;;;;;;24.93;24.06;96758.94;4887098;29;20033;-82
2023/05/29 14:15:00;;;;;;;3.00;2.40;;;;;;;24.91;23.66;96749.59;4873718;29;20070;-82
2023/05/29 15:17:15;;;;;;;9.13;8.23;;;;;;;24.65;25.10;96729.09;4861318;29;20057;-81
2023/05/29 15:19:42;;;;;;;7.50;4.55;;;;;;;24.65;26.12;96722.97;4863173;29;20566;-83
2023/05/29 15:22:10;;;;;;;9.70;3.10;;;;;;;24.67;25.88;96726.16;4863807;29;20053;-81
2023/05/29 15:24:37;;;;;;;4.13;2.67;;;;;;;24.66;25.27;96728.03;4864057;29;20528;-82
2023/05/29 15:27:06;;;;;;;2.47;2.13;;;;;;;24.66;25.19;96722.69;4863199;29;20054;-82
2023/05/29 15:29:35;;;;;;;40.40;30.92;;;;;;;24.65;25.24;96728.31;4863859;29;20095;-82
2023/05/29 15:32:04;;;;;;;18.38;12.18;;;;;;;24.64;25.18;96724.00;4863424;29;20459;-82
2023/05/29 15:34:33;;;;;;;8.73;6.40;;;;;;;24.62;24.94;96726.97;4863264;29;20053;-82
2023/05/29 15:37:01;;;;;;;4.28;2.80;;;;;;;24.61;25.02;96717.34;4863033;29;20529;-81
2023/05/29 15:39:29;;;;;;;4.55;2.92;;;;;;;24.63;26.04;96725.09;4862586;29;20057;-81
2023/05/29 15:41:56;;;;;;;5.32;4.60;;;;;;;24.63;25.67;96709.88;4862782;29;20086;-82
2023/05/29 15:44:24;;;;;;;12.00;9.68;;;;;;;24.65;26.37;96713.09;4862642;29;20093;-81
2023/05/29 15:46:51;;;;;;;11.10;9.35;;;;;;;24.66;25.73;96706.69;4862958;29;20100;-82
2023/05/29 15:49:19;;;;;;;20.75;15.85;;;;;;;24.66;26.20;96712.03;4862960;29;20068;-82
2023/05/29 15:51:48;;;;;;;29.60;7.05;;;;;;;24.67;25.79;96713.63;4862457;29;20585;-82
2023/05/29 15:54:16;;;;;;;8.32;3.55;;;;;;;24.68;26.23;96709.06;4862821;29;20105;-81
2023/05/29 15:56:44;;;;;;;11.88;7.90;;;;;;;24.71;26.15;96708.56;4862332;29;20061;-82
2023/05/29 15:59:12;;;;;;;5.05;3.50;;;;;;;24.72;25.64;96714.69;4862727;29;20057;-82
2023/05/29 16:01:39;;;;;;;5.60;2.85;;;;;;;24.71;25.24;96710.41;4862782;29;20140;-81
2023/05/29 16:04:07;;;;;;;4.85;2.15;;;;;;;24.71;25.39;96703.22;4857632;29;20050;-84
2023/05/29 16:06:36;;;;;;;4.97;2.75;;;;;;;24.72;26.58;96693.34;4844285;29;20057;-80
2023/05/29 16:09:05;;;;;;;5.30;2.85;;;;;;;24.72;26.50;96707.47;4844002;29;20427;-81
2023/05/29 16:11:33;;;;;;;6.20;2.42;;;;;;;24.74;27.10;96702.66;4844570;29;20073;-82
2023/05/29 16:14:00;;;;;;;4.32;2.53;;;;;;;24.75;25.88;96708.78;4844268;29;20082;-81
2023/05/29 16:16:31;;;;;;;5.20;2.97;;;;;;;24.75;26.70;96711.47;4843482;29;20073;-81
2023/05/29 16:18:59;;;;;;;5.70;2.50;;;;;;;24.74;25.74;96701.88;4844084;29;20086;-81
2023/05/29 16:21:26;;;;;;;4.43;2.60;;;;;;;24.72;26.37;96704.81;4844156;29;20447;-81
2023/05/29 16:23:57;;;;;;;3.65;2.25;;;;;;;24.71;26.06;96713.06;4843153;29;20096;-81
2023/05/29 16:26:27;;;;;;;5.18;3.80;;;;;;;24.70;25.78;96706.16;4843547;29;20128;-82
2023/05/29 16:28:56;;;;;;;5.00;3.38;;;;;;;24.70;26.00;96709.59;4843304;29;20089;-81
2023/05/29 16:31:25;;;;;;;4.55;2.85;;;;;;;24.70;26.24;96712.28;4857631;29;20129;-83
2023/05/29 16:33:53;;;;;;;4.70;3.00;;;;;;;24.71;25.73;96710.41;4861864;29;20057;-81
2023/05/29 16:36:20;;;;;;;3.55;2.80;;;;;;;24.70;26.55;96712.28;4860894;29;20058;-81
2023/05/29 16:38:49;;;;;;;3.85;2.20;;;;;;;24.68;25.64;96709.06;4859596;29;20057;-81
2023/05/29 16:41:16;;;;;;;3.70;2.58;;;;;;;24.66;25.81;96708.53;4861096;29;20486;-82
2023/05/29 16:43:45;;;;;;;2.85;2.10;;;;;;;24.65;25.78;96702.41;4861229;29;20514;-87
2023/05/29 16:46:13;;;;;;;2.30;2.10;;;;;;;24.64;25.55;96698.16;4859628;29;20497;-79
2023/05/29 16:48:41;;;;;;;2.97;2.00;;;;;;;24.65;25.32;96702.41;4860761;29;20061;-82
2023/05/29 16:51:08;;;;;;;3.65;1.70;;;;;;;24.64;25.11;96698.16;4860607;29;20049;-81
2023/05/29 16:53:36;;;;;;;2.95;2.42;;;;;;;24.62;25.54;96704.81;4859867;29;20110;-82
2023/05/29 16:56:06;;;;;;;4.32;2.45;;;;;;;24.60;25.45;96702.44;4860108;29;20046;-81
2023/05/29 16:58:34;;;;;;;3.88;2.50;;;;;;;24.59;25.34;96700.81;4860259;29;20090;-82
2023/05/29 17:01:03;;;;;;;3.90;1.73;;;;;;;24.57;25.29;96708.28;4860135;29;20185;-81
2023/05/29 17:03:32;;;;;;;2.90;2.35;;;;;;;24.56;25.44;96703.25;4860671;29;20053;-81
2023/05/29 17:05:59;;;;;;;2.67;2.13;;;;;;;24.54;25.15;96703.50;4860184;29;20530;-82
2023/05/29 17:08:27;;;;;;;2.58;2.05;;;;;;;24.54;25.51;96708.03;4860434;29;20102;-82
2023/05/29 17:10:55;;;;;;;2.80;2.28;;;;;;;24.52;25.41;96705.63;4860384;29;20050;-82
2023/05/29 17:13:23;;;;;;;4.43;2.35;;;;;;;24.52;25.50;96708.31;4860066;29;20053;-82
2023/05/29 17:15:50;;;;;;;2.58;2.10;;;;;;;24.53;25.59;96709.09;4859594;29;20578;-81
2023/05/29 17:18:19;;;;;;;2.90;2.30;;;;;;;24.53;25.61;96712.56;4860405;29;20574;-81
2023/05/29 17:20:47;;;;;;;4.90;2.20;;;;;;;24.51;25.35;96709.38;4860261;29;20057;-81
2023/05/29 17:23:15;;;;;;;7.25;2.35;;;;;;;24.49;25.33;96711.53;4860264;29;20049;-81
2023/05/29 17:25:43;;;;;;;5.00;2.05;;;;;;;24.48;25.38;96709.91;4859921;29;20084;-80
2023/05/29 17:28:10;;;;;;;3.20;2.33;;;;;;;24.49;25.80;96713.38;4859750;29;20065;-81
2023/05/29 17:30:38;;;;;;;2.33;2.05;;;;;;;24.47;26.05;96713.63;4862136;29;20049;-81
2023/05/29 17:33:06;;;;;;;2.55;1.98;;;;;;;24.49;26.36;96711.53;4861530;29;20050;-82
2023/05/29 17:35:35;;;;;;;2.92;2.08;;;;;;;24.47;26.10;96713.63;4860558;29;20129;-81
2023/05/29 17:38:03;;;;;;;3.33;2.10;;;;;;;24.45;26.43;96716.56;4860505;29;20065;-80
2023/05/29 17:40:31;;;;;;;3.67;2.33;;;;;;;24.44;26.09;96724.81;4860503;29;20053;-81
2023/05/29 17:42:59;;;;;;;3.15;1.90;;;;;;;24.41;26.81;96720.03;4861003;29;20050;-81
2023/05/29 17:45:26;;;;;;;5.90;2.45;;;;;;;24.38;26.89;96720.53;4854941;29;20098;-81
2023/05/29 17:47:54;;;;;;;3.67;2.20;;;;;;;24.35;26.83;96721.09;4860562;29;20117;-81
2023/05/29 17:50:22;;;;;;;2.30;2.10;;;;;;;24.33;27.17;96720.56;4863456;29;20049;-82
2023/05/29 17:53:05;;;;;;;5.05;2.88;;;;;;;24.31;28.12;96720.81;4874577;29;20038;-87
2023/05/29 17:55:43;;;;;;;3.92;3.10;;;;;;;24.31;28.75;96725.34;4876963;29;20033;-86
2023/05/29 17:58:19;;;;;;;;;;;;;;;24.29;28.48;96724.81;4882212;29;20045;-85
2023/05/29 18:00:56;;;;;;;4.72;3.50;;;;;;;24.26;29.43;96718.94;4885498;29;19941;-86
2023/05/29 18:03:30;;;;;;;5.30;2.75;;;;;;;24.25;29.17;96724.56;4884199;29;20057;-86
2023/05/29 18:06:03;;;;;;;4.82;2.63;;;;;;;24.24;28.96;96721.06;4881141;29;20050;-86
2023/05/29 18:08:42;;;;;;;5.10;3.08;;;;;;;24.22;29.70;96725.06;4867164;29;20057;-89
2023/05/29 18:11:16;;;;;;;4.80;2.20;;;;;;;24.19;29.16;96734.41;4866805;29;20053;-88
2023/05/29 18:13:56;;;;;;;4.70;2.80;;;;;;;24.12;28.90;96733.88;4864433;29;20061;-82
2023/05/29 18:16:24;;;;;;;4.85;2.47;;;;;;;24.07;28.96;96731.19;4855112;29;20050;-79
2023/05/29 18:18:52;;;;;;;2.10;1.90;;;;;;;24.03;28.85;96732.78;4863243;29;20057;-79
2023/05/29 18:21:22;;;;;;;4.30;2.40;;;;;;;23.98;28.91;96738.09;4863129;29;20467;-81
2023/05/29 18:23:51;;;;;;;8.70;3.28;;;;;;;23.92;28.98;96736.50;4862752;29;20065;-80
2023/05/29 18:26:19;;;;;;;3.95;2.80;;;;;;;23.85;29.20;96734.91;4862602;29;20122;-80
2023/05/29 18:28:47;;;;;;;2.97;2.15;;;;;;;23.80;29.16;96732.22;4863591;29;20114;-81
2023/05/29 18:31:15;;;;;;;2.78;2.35;;;;;;;23.74;29.57;96740.44;4862845;29;20479;-81
2023/05/29 18:33:44;;;;;;;2.83;2.33;;;;;;;23.69;29.69;96735.88;4862360;29;20050;-80
2023/05/29 18:36:11;;;;;;;3.05;2.42;;;;;;;23.65;29.59;96732.94;4862761;29;20092;-78
2023/05/29 18:38:39;;;;;;;2.70;2.20;;;;;;;23.60;30.03;96735.59;4862534;29;20136;-80
2023/05/29 18:41:08;;;;;;;3.03;2.58;;;;;;;23.56;29.77;96744.38;4862492;29;20077;-80
2023/05/29 18:43:35;;;;;;;5.65;2.38;;;;;;;23.51;30.03;96749.69;4863198;29;20517;-79
2023/05/29 18:46:03;;;;;;;3.13;2.42;;;;;;;23.41;30.25;96735.25;4861164;29;20521;-79
2023/05/29 18:48:31;;;;;;;3.58;2.22;;;;;;;23.35;30.77;96746.97;4864989;29;20064;-78
2023/05/29 18:51:01;;;;;;;2.85;2.13;;;;;;;23.31;30.05;96748.53;4863821;29;20102;-78
2023/05/29 18:53:28;;;;;;;4.30;2.80;;;;;;;23.24;30.19;96751.44;4864484;29;20493;-79
2023/05/29 18:55:56;;;;;;;4.97;2.90;;;;;;;23.18;30.43;96751.69;4862369;29;20049;-79
2023/05/29 18:58:25;;;;;;;4.57;2.40;;;;;;;23.11;30.27;96756.41;4861129;29;20525;-79
2023/05/29 19:00:52;;;;;;;4.15;2.45;;;;;;;23.03;30.08;96755.06;4860906;29;20088;-79
2023/05/29 19:03:20;;;;;;;3.88;2.58;;;;;;;22.97;30.13;96766.69;4861844;29;20050;-78
2023/05/29 19:05:48;;;;;;;3.88;2.80;;;;;;;22.88;30.57;96760.25;4861503;29;20057;-78
2023/05/29 19:08:17;;;;;;;2.88;2.40;;;;;;;22.80;30.57;96766.84;4845358;29;20058;-81
2023/05/29 19:10:45;;;;;;;6.45;2.70;;;;;;;22.73;30.78;96764.41;4859103;29;20080;-82
2023/05/29 19:13:12;;;;;;;6.18;2.38;;;;;;;22.63;30.51;96774.97;4864858;29;20081;-83
2023/05/29 19:15:41;;;;;;;2.50;2.08;;;;;;;22.54;30.90;96779.97;4862543;29;20049;-78
2023/05/29 19:18:09;;;;;;;4.10;2.67;;;;;;;22.49;31.00;96781.75;4864893;29;20137;-80
2023/05/29 19:20:37;;;;;;;5.35;2.22;;;;;;;22.44;31.45;96779.88;4867773;29;20053;-80
2023/05/29 19:23:05;;;;;;;5.20;2.55;;;;;;;22.37;31.46;96787.25;4869187;29;20053;-80
2023/05/29 19:25:33;;;;;;;4.35;2.40;;;;;;;22.29;31.69;96779.72;4870741;29;20194;-79
2023/05/29 19:28:00;;;;;;;4.15;2.80;;;;;;;22.25;31.61;96786.59;4869407;29;20080;-79
2023/05/29 19:30:28;;;;;;;5.15;2.28;;;;;;;22.18;31.58;96797.41;4876361;29;20072;-77
2023/05/29 19:32:57;;;;;;;7.45;2.72;;;;;;;22.13;31.99;96800.81;4876701;29;20058;-78
2023/05/29 19:35:25;;;;;;;4.13;2.17;;;;;;;22.07;32.06;96803.69;4867930;29;20062;-78
2023/05/29 19:37:53;;;;;;;4.38;2.10;;;;;;;22.00;31.91;96803.88;4869752;29;20423;-78
2023/05/29 19:40:20;;;;;;;5.05;2.90;;;;;;;21.93;32.36;96808.56;4877545;29;20070;-79
2023/05/29 19:42:48;;;;;;;6.03;2.40;;;;;;;21.87;32.68;96814.88;4884729;29;20074;-78
2023/05/29 19:45:17;;;;;;;5.35;2.65;;;;;;;21.83;32.61;96811.13;4882664;29;20093;-81
2023/05/29 19:47:44;;;;;;;4.55;2.60;;;;;;;21.75;33.03;96818.44;4877741;29;20086;-79
2023/05/29 19:50:14;;;;;;;3.55;2.40;;;;;;;21.69;32.85;96826.59;4881439;29;20052;-82
2023/05/29 19:52:41;;;;;;;4.68;2.97;;;;;;;21.60;33.05;96824.41;4879996;29;20084;-78
2023/05/29 19:55:10;;;;;;;3.17;2.67;;;;;;;21.54;33.34;96820.06;4883120;29;20049;-79
2023/05/29 19:57:39;;;;;;;7.85;4.22;;;;;;;21.49;33.50;96827.16;4881898;29;20033;-81
2023/05/29 20:00:10;;;;;;;4.53;2.40;;;;;;;21.45;33.61;96834.00;4882884;29;20069;-79
2023/05/29 20:02:37;;;;;;;3.95;2.78;;;;;;;21.39;33.92;96839.22;4880037;29;20062;-80
2023/05/29 20:05:06;;;;;;;4.03;2.42;;;;;;;21.32;33.69;96841.25;4883902;29;20037;-79
2023/05/29 20:07:35;;;;;;;2.75;2.38;;;;;;;21.28;34.09;96841.97;4866432;29;20042;-78
2023/05/29 20:10:04;;;;;;;3.95;3.05;;;;;;;21.24;33.97;96846.16;4874627;29;20045;-79
2023/05/29 20:12:31;;;;;;;4.97;3.20;;;;;;;21.20;34.17;96854.59;4884664;29;20046;-79
2023/05/29 20:14:59;;;;;;;3.00;2.50;;;;;;;21.17;34.10;96856.94;4884382;29;20057;-81
2023/05/29 20:17:27;;;;;;;3.55;2.75;;;;;;;21.11;34.22;96857.91;4884375;29;20079;-80
2023/05/29 20:19:55;;;;;;;5.60;2.80;;;;;;;21.06;34.30;96858.66;4884820;29;20041;-79
2023/05/29 20:22:22;;;;;;;4.78;2.75;;;;;;;21.02;34.55;96864.69;4884593;29;20037;-79
2023/05/29 20:24:51;;;;;;;4.63;2.45;;;;;;;20.97;34.70;96860.91;4883958;29;20033;-78
2023/05/29 20:27:19;;;;;;;8.40;3.20;;;;;;;20.91;34.78;96856.56;4884695;29;20086;-78
2023/05/29 20:29:47;;;;;;;3.90;2.58;;;;;;;20.85;35.01;96859.38;4884360;29;20041;-80
2023/05/29 20:32:15;;;;;;;5.25;2.92;;;;;;;20.81;34.95;96860.88;4880577;29;20049;-80
2023/05/29 20:34:44;;;;;;;4.00;2.78;;;;;;;20.74;34.95;96858.41;4882583;29;20058;-78
2023/05/29 20:37:13;;;;;;;4.18;2.83;;;;;;;20.72;35.30;96873.72;4883691;29;20078;-78
2023/05/29 20:39:41;;;;;;;6.32;2.83;;;;;;;20.73;35.41;96872.72;4880696;29;20079;-78
2023/05/29 20:42:14;;;;;;;4.47;2.47;;;;;;;20.70;35.47;96873.16;4883778;29;20056;-83
2023/05/29 20:44:42;;;;;;;5.07;2.80;;;;;;;20.66;35.38;96869.38;4882857;29;20070;-78
2023/05/29 20:47:10;;;;;;;4.93;2.72;;;;;;;20.62;35.33;96868.25;4883310;29;20058;-78
2023/05/29 20:49:38;;;;;;;2.90;2.60;;;;;;;20.53;35.54;96873.94;4882801;29;20082;-78
2023/05/29 20:52:06;;;;;;;3.80;2.50;;;;;;;20.50;36.15;96877.03;4882226;29;20046;-78
2023/05/29 20:54:33;;;;;;;4.03;2.85;;;;;;;20.46;36.05;96878.56;4882529;29;20049;-78
2023/05/29 20:57:01;;;;;;;5.72;3.13;;;;;;;20.42;36.28;96877.41;4883334;29;20074;-78
2023/05/29 20:59:31;;;;;;;5.82;3.10;;;;;;;20.38;36.36;96876.31;4884416;29;20041;-78
2023/05/29 21:01:58;;;;;;;3.88;2.65;;;;;;;20.32;36.27;96872.75;4883444;29;20038;-78
2023/05/29 21:04:26;;;;;;;5.20;2.78;;;;;;;20.30;36.29;96879.31;4882937;29;20086;-78
2023/05/29 21:06:54;;;;;;;6.50;3.17;;;;;;;20.26;36.40;96870.25;4883176;29;20041;-78
2023/05/29 21:09:21;;;;;;;4.65;2.90;;;;;;;20.24;36.59;96872.31;4883269;29;20045;-78